sensor_id;sensor_type;location;lat;lon;timestamp;pressure;altitude;pressure_sealevel;temperature;humidity
72677;BME280;60755;51.374;10.662;2022-07-22T00:02:24;97540.53;;;18.56;75.51
72677;BME280;60755;51.374;10.662;2022-07-22T00:04:50;97542.44;;;18.51;75.64
72677;BME280;60755;51.374;10.662;2022-07-22T00:07:16;97541.31;;;18.62;75.25
72677;BME280;60755;51.374;10.662;2022-07-22T00:09:43;97539.69;;;18.66;75.52
72677;BME280;60755;51.374;10.662;2022-07-22T00:12:09;97537.88;;;18.56;75.06
72677;BME280;60755;51.374;10.662;2022-07-22T00:14:36;97536.81;;;18.52;75.36
72677;BME280;60755;51.374;10.662;2022-07-22T00:17:02;97540.03;;;18.54;75.43
72677;BME280;60755;51.374;10.662;2022-07-22T00:19:30;97537.91;;;18.51;75.71
72677;BME280;60755;51.374;10.662;2022-07-22T00:21:57;97540.13;;;18.39;76.63
72677;BME280;60755;51.374;10.662;2022-07-22T00:24:23;97542.81;;;18.39;76.21
72677;BME280;60755;51.374;10.662;2022-07-22T00:26:50;97539.84;;;18.40;76.46
72677;BME280;60755;51.374;10.662;2022-07-22T00:29:16;97536.69;;;18.38;76.70
72677;BME280;60755;51.374;10.662;2022-07-22T00:31:42;97532.47;;;18.32;76.05
72677;BME280;60755;51.374;10.662;2022-07-22T00:34:09;97545.78;;;18.27;77.06
72677;BME280;60755;51.374;10.662;2022-07-22T00:36:37;97543.91;;;18.33;77.11
72677;BME280;60755;51.374;10.662;2022-07-22T00:39:03;97541.44;;;18.41;76.83
72677;BME280;60755;51.374;10.662;2022-07-22T00:41:30;97536.91;;;18.42;75.40
72677;BME280;60755;51.374;10.662;2022-07-22T00:43:58;97542.03;;;18.33;77.23
72677;BME280;60755;51.374;10.662;2022-07-22T00:46:25;97548.91;;;18.39;76.44
72677;BME280;60755;51.374;10.662;2022-07-22T00:48:53;97540.63;;;18.46;76.55
72677;BME280;60755;51.374;10.662;2022-07-22T00:51:21;97547.81;;;18.45;76.08
72677;BME280;60755;51.374;10.662;2022-07-22T00:53:49;97537.63;;;18.53;75.84
72677;BME280;60755;51.374;10.662;2022-07-22T00:56:17;97540.53;;;18.56;75.71
72677;BME280;60755;51.374;10.662;2022-07-22T00:58:46;97538.78;;;18.41;76.19
72677;BME280;60755;51.374;10.662;2022-07-22T01:01:13;97539.63;;;18.37;77.36
72677;BME280;60755;51.374;10.662;2022-07-22T01:03:42;97538.28;;;18.39;77.30
72677;BME280;60755;51.374;10.662;2022-07-22T01:06:09;97529.78;;;18.37;76.51
72677;BME280;60755;51.374;10.662;2022-07-22T01:08:38;97537.22;;;18.35;76.72
72677;BME280;60755;51.374;10.662;2022-07-22T01:11:11;97540.41;;;18.37;76.72
72677;BME280;60755;51.374;10.662;2022-07-22T01:13:39;97542.53;;;18.35;77.27
72677;BME280;60755;51.374;10.662;2022-07-22T01:16:07;97539.66;;;18.32;77.49
72677;BME280;60755;51.374;10.662;2022-07-22T01:18:35;97528.97;;;18.37;77.70
72677;BME280;60755;51.374;10.662;2022-07-22T01:21:03;97535.09;;;18.37;79.02
72677;BME280;60755;51.374;10.662;2022-07-22T01:23:30;97533.53;;;18.31;79.51
72677;BME280;60755;51.374;10.662;2022-07-22T01:25:56;97535.63;;;18.34;78.64
72677;BME280;60755;51.374;10.662;2022-07-22T01:28:23;97539.16;;;18.30;79.11
72677;BME280;60755;51.374;10.662;2022-07-22T01:30:51;97537.28;;;18.30;79.06
72677;BME280;60755;51.374;10.662;2022-07-22T01:33:17;97537.00;;;18.32;79.04
72677;BME280;60755;51.374;10.662;2022-07-22T01:35:44;97532.78;;;18.26;79.82
72677;BME280;60755;51.374;10.662;2022-07-22T01:38:12;97535.72;;;18.24;79.26
72677;BME280;60755;51.374;10.662;2022-07-22T01:40:39;97536.81;;;18.18;80.16
72677;BME280;60755;51.374;10.662;2022-07-22T01:43:06;97534.13;;;18.23;80.22
72677;BME280;60755;51.374;10.662;2022-07-22T01:45:33;97534.63;;;18.25;80.35
72677;BME280;60755;51.374;10.662;2022-07-22T01:47:59;97533.13;;;18.14;80.77
72677;BME280;60755;51.374;10.662;2022-07-22T01:50:26;97538.38;;;18.24;80.78
72677;BME280;60755;51.374;10.662;2022-07-22T01:52:53;97539.97;;;18.25;80.99
72677;BME280;60755;51.374;10.662;2022-07-22T01:55:21;97541.53;;;18.31;79.95
72677;BME280;60755;51.374;10.662;2022-07-22T01:57:47;97535.28;;;18.07;79.73
72677;BME280;60755;51.374;10.662;2022-07-22T02:00:15;97539.56;;;18.03;80.56
72677;BME280;60755;51.374;10.662;2022-07-22T02:02:41;97533.22;;;17.99;80.69
72677;BME280;60755;51.374;10.662;2022-07-22T02:05:08;97536.41;;;17.96;81.17
72677;BME280;60755;51.374;10.662;2022-07-22T02:07:35;97540.63;;;18.07;80.77
72677;BME280;60755;51.374;10.662;2022-07-22T02:10:02;97542.19;;;18.08;81.07
72677;BME280;60755;51.374;10.662;2022-07-22T02:12:31;97540.31;;;18.13;80.45
72677;BME280;60755;51.374;10.662;2022-07-22T02:14:57;97539.53;;;18.13;80.86
72677;BME280;60755;51.374;10.662;2022-07-22T02:17:25;97533.16;;;18.09;80.58
72677;BME280;60755;51.374;10.662;2022-07-22T02:19:51;97535.78;;;18.14;80.62
72677;BME280;60755;51.374;10.662;2022-07-22T02:22:18;97529.41;;;18.10;81.08
72677;BME280;60755;51.374;10.662;2022-07-22T02:24:44;97529.91;;;18.17;80.59
72677;BME280;60755;51.374;10.662;2022-07-22T02:27:11;97539.03;;;18.06;81.29
72677;BME280;60755;51.374;10.662;2022-07-22T02:29:39;97540.34;;;18.03;81.08
72677;BME280;60755;51.374;10.662;2022-07-22T02:32:05;97542.06;;;18.28;80.38
72677;BME280;60755;51.374;10.662;2022-07-22T02:34:31;97542.91;;;18.18;80.71
72677;BME280;60755;51.374;10.662;2022-07-22T02:36:58;97538.16;;;18.15;80.70
72677;BME280;60755;51.374;10.662;2022-07-22T02:39:25;97539.97;;;18.20;80.02
72677;BME280;60755;51.374;10.662;2022-07-22T02:41:52;97538.97;;;18.11;80.82
72677;BME280;60755;51.374;10.662;2022-07-22T02:44:18;97539.78;;;18.11;81.29
72677;BME280;60755;51.374;10.662;2022-07-22T02:46:46;97548.31;;;18.08;80.51
72677;BME280;60755;51.374;10.662;2022-07-22T02:49:13;97546.16;;;18.10;80.26
72677;BME280;60755;51.374;10.662;2022-07-22T02:51:39;97544.69;;;18.33;79.36
72677;BME280;60755;51.374;10.662;2022-07-22T02:54:05;97549.50;;;18.31;79.82
72677;BME280;60755;51.374;10.662;2022-07-22T02:56:32;97541.34;;;18.17;79.25
72677;BME280;60755;51.374;10.662;2022-07-22T02:58:58;97539.03;;;18.06;79.34
72677;BME280;60755;51.374;10.662;2022-07-22T03:01:25;97546.47;;;18.04;79.64
72677;BME280;60755;51.374;10.662;2022-07-22T03:03:52;97540.63;;;18.07;80.47
72677;BME280;60755;51.374;10.662;2022-07-22T03:06:19;97543.78;;;18.09;79.96
72677;BME280;60755;51.374;10.662;2022-07-22T03:08:46;97553.97;;;17.97;79.87
72677;BME280;60755;51.374;10.662;2022-07-22T03:11:13;97555.00;;;18.06;79.86
72677;BME280;60755;51.374;10.662;2022-07-22T03:13:39;97554.44;;;18.09;79.16
72677;BME280;60755;51.374;10.662;2022-07-22T03:16:05;97558.16;;;18.08;79.67
72677;BME280;60755;51.374;10.662;2022-07-22T03:18:33;97553.13;;;18.01;79.88
72677;BME280;60755;51.374;10.662;2022-07-22T03:21:01;97553.41;;;18.00;80.37
72677;BME280;60755;51.374;10.662;2022-07-22T03:23:27;97551.56;;;18.00;80.25
72677;BME280;60755;51.374;10.662;2022-07-22T03:25:55;97560.84;;;18.03;79.87
72677;BME280;60755;51.374;10.662;2022-07-22T03:28:22;97544.44;;;17.91;79.95
72677;BME280;60755;51.374;10.662;2022-07-22T03:30:48;97551.84;;;17.88;80.03
72677;BME280;60755;51.374;10.662;2022-07-22T03:33:15;97558.03;;;17.79;81.26
72677;BME280;60755;51.374;10.662;2022-07-22T03:35:41;97560.97;;;17.72;80.79
72677;BME280;60755;51.374;10.662;2022-07-22T03:38:09;97559.94;;;17.73;80.78
72677;BME280;60755;51.374;10.662;2022-07-22T03:40:36;97557.22;;;17.83;80.14
72677;BME280;60755;51.374;10.662;2022-07-22T03:43:02;97556.16;;;17.79;80.37
72677;BME280;60755;51.374;10.662;2022-07-22T03:45:28;97558.91;;;17.54;80.71
72677;BME280;60755;51.374;10.662;2022-07-22T03:47:55;97561.25;;;17.76;80.64
72677;BME280;60755;51.374;10.662;2022-07-22T03:50:23;97553.53;;;17.74;80.42
72677;BME280;60755;51.374;10.662;2022-07-22T03:52:50;97562.03;;;17.71;80.64
72677;BME280;60755;51.374;10.662;2022-07-22T03:55:17;97550.84;;;17.79;80.40
72677;BME280;60755;51.374;10.662;2022-07-22T03:57:44;97561.44;;;17.89;80.47
72677;BME280;60755;51.374;10.662;2022-07-22T04:00:11;97554.44;;;18.09;79.62
72677;BME280;60755;51.374;10.662;2022-07-22T04:02:37;97546.97;;;18.11;79.35
72677;BME280;60755;51.374;10.662;2022-07-22T04:05:05;97556.06;;;18.05;79.18
72677;BME280;60755;51.374;10.662;2022-07-22T04:07:31;97556.63;;;17.97;78.88
72677;BME280;60755;51.374;10.662;2022-07-22T04:09:58;97558.16;;;18.08;80.14
72677;BME280;60755;51.374;10.662;2022-07-22T04:12:33;97554.72;;;18.02;79.37
72677;BME280;60755;51.374;10.662;2022-07-22T04:14:59;97554.91;;;18.16;78.22
72677;BME280;60755;51.374;10.662;2022-07-22T04:17:26;97550.31;;;18.27;78.36
72677;BME280;60755;51.374;10.662;2022-07-22T04:19:52;97550.81;;;18.34;77.93
72677;BME280;60755;51.374;10.662;2022-07-22T04:22:19;97551.66;;;18.29;77.71
72677;BME280;60755;51.374;10.662;2022-07-22T04:24:45;97551.38;;;18.31;77.84
72677;BME280;60755;51.374;10.662;2022-07-22T04:27:12;97552.69;;;18.33;77.69
72677;BME280;60755;51.374;10.662;2022-07-22T04:29:39;97555.09;;;18.30;77.40
72677;BME280;60755;51.374;10.662;2022-07-22T04:32:06;97552.00;;;18.52;76.30
72677;BME280;60755;51.374;10.662;2022-07-22T04:34:32;97557.97;;;18.38;76.96
72677;BME280;60755;51.374;10.662;2022-07-22T04:36:59;97562.81;;;18.31;77.64
72677;BME280;60755;51.374;10.662;2022-07-22T04:39:25;97559.09;;;18.27;77.75
72677;BME280;60755;51.374;10.662;2022-07-22T04:41:51;97561.81;;;18.22;78.27
72677;BME280;60755;51.374;10.662;2022-07-22T04:44:18;97565.50;;;18.26;77.83
72677;BME280;60755;51.374;10.662;2022-07-22T04:46:46;97560.09;;;18.36;77.81
72677;BME280;60755;51.374;10.662;2022-07-22T04:49:12;97560.81;;;18.13;77.91
72677;BME280;60755;51.374;10.662;2022-07-22T04:51:38;97562.41;;;18.04;77.96
72677;BME280;60755;51.374;10.662;2022-07-22T04:54:05;97570.38;;;18.14;77.74
72677;BME280;60755;51.374;10.662;2022-07-22T04:56:31;97564.84;;;18.05;78.37
72677;BME280;60755;51.374;10.662;2022-07-22T04:58:58;97569.88;;;18.07;78.67
72677;BME280;60755;51.374;10.662;2022-07-22T05:01:24;97571.16;;;18.14;78.73
72677;BME280;60755;51.374;10.662;2022-07-22T05:03:52;97571.47;;;18.03;78.21
72677;BME280;60755;51.374;10.662;2022-07-22T05:06:18;97574.63;;;18.15;77.11
72677;BME280;60755;51.374;10.662;2022-07-22T05:08:45;97576.72;;;18.18;76.40
72677;BME280;60755;51.374;10.662;2022-07-22T05:11:11;97577.34;;;18.05;77.30
72677;BME280;60755;51.374;10.662;2022-07-22T05:13:38;97579.16;;;18.09;77.81
72677;BME280;60755;51.374;10.662;2022-07-22T05:16:05;97581.59;;;18.06;78.22
72677;BME280;60755;51.374;10.662;2022-07-22T05:18:32;97580.78;;;18.05;78.08
72677;BME280;60755;51.374;10.662;2022-07-22T05:21:01;97580.44;;;18.17;78.25
72677;BME280;60755;51.374;10.662;2022-07-22T05:23:27;97580.97;;;18.19;77.76
72677;BME280;60755;51.374;10.662;2022-07-22T05:25:54;97583.34;;;18.21;77.55
72677;BME280;60755;51.374;10.662;2022-07-22T05:28:20;97584.78;;;18.03;78.42
72677;BME280;60755;51.374;10.662;2022-07-22T05:30:47;97587.06;;;18.25;78.23
72677;BME280;60755;51.374;10.662;2022-07-22T05:33:13;97577.69;;;18.37;77.20
72677;BME280;60755;51.374;10.662;2022-07-22T05:35:40;97572.59;;;17.97;78.38
72677;BME280;60755;51.374;10.662;2022-07-22T05:38:08;97580.00;;;18.05;78.05
72677;BME280;60755;51.374;10.662;2022-07-22T05:40:34;97580.34;;;18.37;77.21
72677;BME280;60755;51.374;10.662;2022-07-22T05:43:01;97585.13;;;18.35;76.66
72677;BME280;60755;51.374;10.662;2022-07-22T05:45:27;97584.88;;;18.32;77.72
72677;BME280;60755;51.374;10.662;2022-07-22T05:47:53;97584.91;;;18.27;76.95
72677;BME280;60755;51.374;10.662;2022-07-22T05:50:20;97593.69;;;18.27;77.02
72677;BME280;60755;51.374;10.662;2022-07-22T05:52:46;97589.56;;;18.01;78.00
72677;BME280;60755;51.374;10.662;2022-07-22T05:55:14;97588.50;;;18.07;78.00
72677;BME280;60755;51.374;10.662;2022-07-22T05:57:41;97593.25;;;18.10;77.38
72677;BME280;60755;51.374;10.662;2022-07-22T06:00:09;97592.19;;;18.11;77.88
72677;BME280;60755;51.374;10.662;2022-07-22T06:02:35;97595.38;;;18.13;77.74
72677;BME280;60755;51.374;10.662;2022-07-22T06:05:02;97590.94;;;18.42;76.59
72677;BME280;60755;51.374;10.662;2022-07-22T06:07:28;97591.94;;;18.07;77.36
72677;BME280;60755;51.374;10.662;2022-07-22T06:09:55;97596.41;;;18.17;76.95
72677;BME280;60755;51.374;10.662;2022-07-22T06:12:22;97596.97;;;18.09;76.86
72677;BME280;60755;51.374;10.662;2022-07-22T06:14:49;97601.56;;;17.98;77.70
72677;BME280;60755;51.374;10.662;2022-07-22T06:17:15;97594.34;;;18.04;77.19
72677;BME280;60755;51.374;10.662;2022-07-22T06:19:41;97598.84;;;18.13;76.98
72677;BME280;60755;51.374;10.662;2022-07-22T06:22:08;97601.56;;;18.42;77.02
72677;BME280;60755;51.374;10.662;2022-07-22T06:24:35;97608.47;;;18.49;75.41
72677;BME280;60755;51.374;10.662;2022-07-22T06:27:02;97606.28;;;18.95;74.40
72677;BME280;60755;51.374;10.662;2022-07-22T06:29:29;97600.50;;;19.17;75.35
72677;BME280;60755;51.374;10.662;2022-07-22T06:31:56;97605.25;;;19.25;73.13
72677;BME280;60755;51.374;10.662;2022-07-22T06:34:23;97612.94;;;19.26;73.27
72677;BME280;60755;51.374;10.662;2022-07-22T06:36:49;97616.38;;;18.98;72.65
72677;BME280;60755;51.374;10.662;2022-07-22T06:39:15;97615.34;;;18.55;75.04
72677;BME280;60755;51.374;10.662;2022-07-22T06:41:42;97619.59;;;18.61;74.32
72677;BME280;60755;51.374;10.662;2022-07-22T06:44:09;97624.91;;;18.61;74.43
72677;BME280;60755;51.374;10.662;2022-07-22T06:46:37;97621.75;;;18.54;75.51
72677;BME280;60755;51.374;10.662;2022-07-22T06:49:03;97623.34;;;18.55;75.69
72677;BME280;60755;51.374;10.662;2022-07-22T06:51:30;97620.09;;;18.63;75.42
72677;BME280;60755;51.374;10.662;2022-07-22T06:53:56;97622.28;;;18.56;74.66
72677;BME280;60755;51.374;10.662;2022-07-22T06:56:23;97626.53;;;18.52;74.65
72677;BME280;60755;51.374;10.662;2022-07-22T06:58:49;97631.56;;;18.58;75.15
72677;BME280;60755;51.374;10.662;2022-07-22T07:01:15;97620.91;;;18.58;75.45
72677;BME280;60755;51.374;10.662;2022-07-22T07:03:43;97620.91;;;18.58;75.91
72677;BME280;60755;51.374;10.662;2022-07-22T07:06:11;97620.59;;;18.65;75.34
72677;BME280;60755;51.374;10.662;2022-07-22T07:08:38;97614.88;;;18.87;74.82
72677;BME280;60755;51.374;10.662;2022-07-22T07:11:05;97620.63;;;19.33;73.64
72677;BME280;60755;51.374;10.662;2022-07-22T07:13:31;97617.69;;;20.06;71.06
72677;BME280;60755;51.374;10.662;2022-07-22T07:15:58;97613.53;;;20.38;69.39
72677;BME280;60755;51.374;10.662;2022-07-22T07:18:24;97620.19;;;20.59;68.05
72677;BME280;60755;51.374;10.662;2022-07-22T07:20:52;97611.56;;;20.81;68.32
72677;BME280;60755;51.374;10.662;2022-07-22T07:23:19;97619.72;;;20.33;67.52
72677;BME280;60755;51.374;10.662;2022-07-22T07:25:45;97619.13;;;20.18;69.16
72677;BME280;60755;51.374;10.662;2022-07-22T07:28:12;97616.38;;;20.98;67.86
72677;BME280;60755;51.374;10.662;2022-07-22T07:30:39;97608.88;;;22.65;61.93
72677;BME280;60755;51.374;10.662;2022-07-22T07:33:05;97612.69;;;22.86;61.01
72677;BME280;60755;51.374;10.662;2022-07-22T07:35:31;97608.00;;;23.85;56.66
72677;BME280;60755;51.374;10.662;2022-07-22T07:38:00;97607.50;;;22.90;58.85
72677;BME280;60755;51.374;10.662;2022-07-22T07:40:26;97617.22;;;22.64;60.93
72677;BME280;60755;51.374;10.662;2022-07-22T07:42:53;97610.25;;;23.30;60.77
72677;BME280;60755;51.374;10.662;2022-07-22T07:45:19;97605.22;;;22.83;59.32
72677;BME280;60755;51.374;10.662;2022-07-22T07:47:46;97610.50;;;22.52;60.12
72677;BME280;60755;51.374;10.662;2022-07-22T07:50:12;97604.44;;;22.11;60.93
72677;BME280;60755;51.374;10.662;2022-07-22T07:52:40;97608.97;;;21.28;63.71
72677;BME280;60755;51.374;10.662;2022-07-22T07:55:09;97602.59;;;20.91;64.25
72677;BME280;60755;51.374;10.662;2022-07-22T07:57:37;97592.25;;;21.91;62.60
72677;BME280;60755;51.374;10.662;2022-07-22T08:00:07;97596.28;;;21.33;64.34
72677;BME280;60755;51.374;10.662;2022-07-22T08:02:34;97591.44;;;22.54;60.22
72677;BME280;60755;51.374;10.662;2022-07-22T08:05:00;97595.44;;;23.32;58.83
72677;BME280;60755;51.374;10.662;2022-07-22T08:07:27;97596.69;;;22.23;59.66
72677;BME280;60755;51.374;10.662;2022-07-22T08:09:53;97597.59;;;22.18;60.35
72677;BME280;60755;51.374;10.662;2022-07-22T08:12:21;97604.75;;;23.04;58.74
72677;BME280;60755;51.374;10.662;2022-07-22T08:14:48;97602.25;;;21.44;61.93
72677;BME280;60755;51.374;10.662;2022-07-22T08:17:14;97608.91;;;20.81;64.09
72677;BME280;60755;51.374;10.662;2022-07-22T08:19:41;97597.19;;;21.97;61.61
72677;BME280;60755;51.374;10.662;2022-07-22T08:22:07;97599.06;;;21.97;60.58
72677;BME280;60755;51.374;10.662;2022-07-22T08:24:33;97605.84;;;22.80;59.40
72677;BME280;60755;51.374;10.662;2022-07-22T08:27:00;97600.91;;;22.38;59.86
72677;BME280;60755;51.374;10.662;2022-07-22T08:29:28;97603.88;;;22.36;59.70
72677;BME280;60755;51.374;10.662;2022-07-22T08:31:54;97605.53;;;22.46;59.44
72677;BME280;60755;51.374;10.662;2022-07-22T08:34:21;97596.03;;;21.62;61.43
72677;BME280;60755;51.374;10.662;2022-07-22T08:36:48;97602.44;;;21.34;62.03
72677;BME280;60755;51.374;10.662;2022-07-22T08:39:14;97600.47;;;21.81;60.91
72677;BME280;60755;51.374;10.662;2022-07-22T08:41:41;97602.06;;;21.82;61.58
72677;BME280;60755;51.374;10.662;2022-07-22T08:44:08;97590.56;;;22.09;61.48
72677;BME280;60755;51.374;10.662;2022-07-22T08:46:37;97590.75;;;22.12;60.70
72677;BME280;60755;51.374;10.662;2022-07-22T08:49:03;97598.75;;;22.26;59.49
72677;BME280;60755;51.374;10.662;2022-07-22T08:51:31;97594.09;;;22.90;57.16
72677;BME280;60755;51.374;10.662;2022-07-22T08:53:58;97598.03;;;22.34;57.55
72677;BME280;60755;51.374;10.662;2022-07-22T08:56:24;97600.97;;;23.05;55.74
72677;BME280;60755;51.374;10.662;2022-07-22T08:58:51;97596.13;;;23.47;56.40
72677;BME280;60755;51.374;10.662;2022-07-22T09:01:17;97598.28;;;24.24;53.42
72677;BME280;60755;51.374;10.662;2022-07-22T09:03:47;97594.47;;;24.25;53.25
72677;BME280;60755;51.374;10.662;2022-07-22T09:06:15;97593.84;;;24.19;51.66
72677;BME280;60755;51.374;10.662;2022-07-22T09:08:53;97597.25;;;23.85;52.99
72677;BME280;60755;51.374;10.662;2022-07-22T09:11:21;97597.25;;;23.85;53.65
72677;BME280;60755;51.374;10.662;2022-07-22T09:13:48;97589.00;;;24.73;53.61
72677;BME280;60755;51.374;10.662;2022-07-22T09:16:15;97592.16;;;24.32;51.77
72677;BME280;60755;51.374;10.662;2022-07-22T09:18:47;97594.38;;;24.73;50.74
72677;BME280;60755;51.374;10.662;2022-07-22T09:21:15;97593.75;;;23.76;53.47
72677;BME280;60755;51.374;10.662;2022-07-22T09:23:42;97586.09;;;22.99;55.72
72677;BME280;60755;51.374;10.662;2022-07-22T09:26:29;97590.69;;;22.40;57.09
72677;BME280;60755;51.374;10.662;2022-07-22T09:28:56;97589.41;;;22.96;56.93
72677;BME280;60755;51.374;10.662;2022-07-22T09:31:24;97580.81;;;23.87;52.54
72677;BME280;60755;51.374;10.662;2022-07-22T09:33:52;97585.88;;;23.17;55.23
72677;BME280;60755;51.374;10.662;2022-07-22T09:36:20;97589.63;;;23.08;54.31
72677;BME280;60755;51.374;10.662;2022-07-22T09:38:46;97582.94;;;22.97;54.94
72677;BME280;60755;51.374;10.662;2022-07-22T09:41:13;97583.28;;;23.66;52.27
72677;BME280;60755;51.374;10.662;2022-07-22T09:43:40;97582.84;;;23.81;52.00
72677;BME280;60755;51.374;10.662;2022-07-22T09:46:06;97586.75;;;24.23;51.60
72677;BME280;60755;51.374;10.662;2022-07-22T09:48:33;97590.50;;;24.14;52.38
72677;BME280;60755;51.374;10.662;2022-07-22T09:51:02;97590.63;;;23.91;52.79
72677;BME280;60755;51.374;10.662;2022-07-22T09:53:30;97583.72;;;24.08;51.20
72677;BME280;60755;51.374;10.662;2022-07-22T09:55:57;97587.50;;;23.58;52.33
72677;BME280;60755;51.374;10.662;2022-07-22T09:58:24;97583.66;;;23.82;53.69
72677;BME280;60755;51.374;10.662;2022-07-22T10:00:52;97590.31;;;23.93;52.16
72677;BME280;60755;51.374;10.662;2022-07-22T10:03:23;97582.16;;;25.10;49.01
72677;BME280;60755;51.374;10.662;2022-07-22T10:05:51;97583.09;;;24.97;49.45
72677;BME280;60755;51.374;10.662;2022-07-22T10:08:20;97588.03;;;24.87;51.07
72677;BME280;60755;51.374;10.662;2022-07-22T10:10:47;97583.72;;;25.58;50.87
72677;BME280;60755;51.374;10.662;2022-07-22T10:13:16;97586.38;;;25.67;47.84
72677;BME280;60755;51.374;10.662;2022-07-22T10:15:43;97589.16;;;24.60;50.30
72677;BME280;60755;51.374;10.662;2022-07-22T10:18:17;97587.69;;;23.00;54.37
72677;BME280;60755;51.374;10.662;2022-07-22T10:20:45;97584.59;;;22.25;56.22
72677;BME280;60755;51.374;10.662;2022-07-22T10:23:12;97585.69;;;22.11;56.91
72677;BME280;60755;51.374;10.662;2022-07-22T10:25:52;97582.81;;;22.07;57.75
72677;BME280;60755;51.374;10.662;2022-07-22T10:28:25;97585.97;;;23.26;54.89
72677;BME280;60755;51.374;10.662;2022-07-22T10:30:51;97588.88;;;23.16;53.31
72677;BME280;60755;51.374;10.662;2022-07-22T10:33:19;97594.00;;;22.81;55.26
72677;BME280;60755;51.374;10.662;2022-07-22T10:35:53;97579.47;;;23.58;53.62
72677;BME280;60755;51.374;10.662;2022-07-22T10:38:22;97593.38;;;23.29;54.85
72677;BME280;60755;51.374;10.662;2022-07-22T10:40:51;97584.34;;;23.25;55.79
72677;BME280;60755;51.374;10.662;2022-07-22T10:43:20;97591.03;;;23.05;55.62
72677;BME280;60755;51.374;10.662;2022-07-22T10:45:49;97577.56;;;22.74;57.06
72677;BME280;60755;51.374;10.662;2022-07-22T10:48:19;97582.19;;;22.60;57.61
72677;BME280;60755;51.374;10.662;2022-07-22T10:50:51;97588.56;;;21.87;60.29
72677;BME280;60755;51.374;10.662;2022-07-22T10:53:22;97591.94;;;21.78;60.63
72677;BME280;60755;51.374;10.662;2022-07-22T10:56:04;97587.00;;;21.99;59.46
72677;BME280;60755;51.374;10.662;2022-07-22T10:58:51;97589.44;;;22.23;58.96
72677;BME280;60755;51.374;10.662;2022-07-22T11:03:47;97591.03;;;22.24;58.85
72677;BME280;60755;51.374;10.662;2022-07-22T11:06:16;97584.91;;;22.69;57.95
72677;BME280;60755;51.374;10.662;2022-07-22T11:08:44;97586.00;;;22.23;58.71
72677;BME280;60755;51.374;10.662;2022-07-22T11:11:12;97582.63;;;22.17;58.77
72677;BME280;60755;51.374;10.662;2022-07-22T11:13:40;97575.88;;;22.78;57.90
72677;BME280;60755;51.374;10.662;2022-07-22T11:16:17;97572.44;;;22.42;58.69
72677;BME280;60755;51.374;10.662;2022-07-22T11:18:45;97578.00;;;22.90;57.08
72677;BME280;60755;51.374;10.662;2022-07-22T11:21:14;97580.25;;;23.19;56.29
72677;BME280;60755;51.374;10.662;2022-07-22T11:23:41;97579.38;;;22.43;58.27
72677;BME280;60755;51.374;10.662;2022-07-22T11:26:09;97573.78;;;22.30;57.67
72677;BME280;60755;51.374;10.662;2022-07-22T11:28:40;97585.34;;;22.40;58.15
72677;BME280;60755;51.374;10.662;2022-07-22T11:31:07;97576.22;;;22.41;58.14
72677;BME280;60755;51.374;10.662;2022-07-22T11:33:33;97575.63;;;22.88;56.95
72677;BME280;60755;51.374;10.662;2022-07-22T11:36:02;97577.78;;;23.40;55.48
72677;BME280;60755;51.374;10.662;2022-07-22T11:38:40;97574.41;;;23.26;55.19
72677;BME280;60755;51.374;10.662;2022-07-22T11:41:07;97571.78;;;22.81;56.04
72677;BME280;60755;51.374;10.662;2022-07-22T11:43:39;97571.84;;;22.89;56.64
72677;BME280;60755;51.374;10.662;2022-07-22T11:46:05;97567.03;;;23.62;55.09
72677;BME280;60755;51.374;10.662;2022-07-22T11:48:32;97573.72;;;23.82;54.12
72677;BME280;60755;51.374;10.662;2022-07-22T11:50:59;97562.53;;;24.93;51.04
72677;BME280;60755;51.374;10.662;2022-07-22T11:53:26;97562.06;;;25.46;50.12
72677;BME280;60755;51.374;10.662;2022-07-22T11:55:56;97560.34;;;25.80;49.88
72677;BME280;60755;51.374;10.662;2022-07-22T11:58:40;97547.50;;;25.47;48.71
72677;BME280;60755;51.374;10.662;2022-07-22T12:01:09;97557.47;;;25.08;48.97
72677;BME280;60755;51.374;10.662;2022-07-22T12:03:37;97544.41;;;25.75;48.04
72677;BME280;60755;51.374;10.662;2022-07-22T12:06:07;97549.78;;;24.38;51.49
72677;BME280;60755;51.374;10.662;2022-07-22T12:08:38;97546.16;;;24.42;50.87
72677;BME280;60755;51.374;10.662;2022-07-22T12:11:05;97550.19;;;23.96;51.66
72677;BME280;60755;51.374;10.662;2022-07-22T12:13:32;97553.13;;;23.60;54.79
72677;BME280;60755;51.374;10.662;2022-07-22T12:16:17;97548.47;;;23.83;53.62
72677;BME280;60755;51.374;10.662;2022-07-22T12:18:44;97552.78;;;24.45;51.34
72677;BME280;60755;51.374;10.662;2022-07-22T12:21:16;97550.63;;;23.81;53.20
72677;BME280;60755;51.374;10.662;2022-07-22T12:23:49;97551.28;;;23.87;53.02
72677;BME280;60755;51.374;10.662;2022-07-22T12:26:16;97541.53;;;24.08;52.48
72677;BME280;60755;51.374;10.662;2022-07-22T12:28:42;97541.53;;;24.25;51.39
72677;BME280;60755;51.374;10.662;2022-07-22T12:31:11;97540.47;;;24.35;51.41
72677;BME280;60755;51.374;10.662;2022-07-22T12:33:46;97531.00;;;24.46;51.97
72677;BME280;60755;51.374;10.662;2022-07-22T12:36:13;97530.03;;;24.42;52.36
72677;BME280;60755;51.374;10.662;2022-07-22T12:38:40;97527.53;;;23.23;54.05
72677;BME280;60755;51.374;10.662;2022-07-22T12:41:23;97532.19;;;23.88;53.48
72677;BME280;60755;51.374;10.662;2022-07-22T12:43:51;97531.84;;;23.33;53.67
72677;BME280;60755;51.374;10.662;2022-07-22T12:46:19;97529.78;;;22.76;55.47
72677;BME280;60755;51.374;10.662;2022-07-22T12:48:50;97522.91;;;23.06;55.18
72677;BME280;60755;51.374;10.662;2022-07-22T12:51:17;97527.34;;;23.51;53.55
72677;BME280;60755;51.374;10.662;2022-07-22T12:53:44;97529.84;;;23.47;54.10
72677;BME280;60755;51.374;10.662;2022-07-22T12:56:10;97518.63;;;23.93;52.45